sensor_id;sensor_type;location;lat;lon;timestamp;pressure;altitude;pressure_sealevel;temperature;humidity
42621;BME280;28252;53.336;-6.298;2023-05-23T00:00:25;102500.16;;;22.45;100.00
42621;BME280;28252;53.336;-6.298;2023-05-23T00:00:59;102491.16;;;22.45;100.00
42621;BME280;28252;53.336;-6.298;2023-05-23T00:01:33;102501.16;;;22.44;100.00
42621;BME280;28252;53.336;-6.298;2023-05-23T00:02:07;102501.16;;;22.44;100.00
42621;BME280;28252;53.336;-6.298;2023-05-23T00:02:42;102495.88;;;22.43;100.00
42621;BME280;28252;53.336;-6.298;2023-05-23T00:03:14;102499.44;;;22.43;100.00
42621;BME280;28252;53.336;-6.298;2023-05-23T00:03:49;102498.59;;;22.43;100.00
42621;BME280;28252;53.336;-6.298;2023-05-23T00:04:20;102500.44;;;22.42;100.00
42621;BME280;28252;53.336;-6.298;2023-05-23T00:04:58;102489.56;;;22.42;100.00
42621;BME280;28252;53.336;-6.298;2023-05-23T00:05:37;102492.28;;;22.42;100.00
42621;BME280;28252;53.336;-6.298;2023-05-23T00:06:08;102499.56;;;22.42;100.00
42621;BME280;28252;53.336;-6.298;2023-05-23T00:06:42;102497.72;;;22.42;100.00
42621;BME280;28252;53.336;-6.298;2023-05-23T00:07:18;102492.28;;;22.42;100.00
42621;BME280;28252;53.336;-6.298;2023-05-23T00:07:55;102490.59;;;22.41;100.00
42621;BME280;28252;53.336;-6.298;2023-05-23T00:08:26;102495.13;;;22.41;100.00
42621;BME280;28252;53.336;-6.298;2023-05-23T00:08:57;102494.28;;;22.40;100.00
42621;BME280;28252;53.336;-6.298;2023-05-23T00:09:30;102502.44;;;22.40;100.00
42621;BME280;28252;53.336;-6.298;2023-05-23T00:10:03;102494.28;;;22.40;100.00
42621;BME280;28252;53.336;-6.298;2023-05-23T00:10:39;102495.13;;;22.41;100.00
42621;BME280;28252;53.336;-6.298;2023-05-23T00:11:10;102497.00;;;22.40;100.00
42621;BME280;28252;53.336;-6.298;2023-05-23T00:11:43;102494.28;;;22.40;100.00
42621;BME280;28252;53.336;-6.298;2023-05-23T00:12:16;102502.56;;;22.38;100.00
42621;BME280;28252;53.336;-6.298;2023-05-23T00:12:47;102500.72;;;22.39;100.00
42621;BME280;28252;53.336;-6.298;2023-05-23T00:13:19;102503.44;;;22.39;100.00
42621;BME280;28252;53.336;-6.298;2023-05-23T00:13:50;102497.13;;;22.38;100.00
42621;BME280;28252;53.336;-6.298;2023-05-23T00:14:23;102503.44;;;22.39;100.00
42621;BME280;28252;53.336;-6.298;2023-05-23T00:14:58;102497.13;;;22.38;100.00
42621;BME280;28252;53.336;-6.298;2023-05-23T00:15:29;102499.00;;;22.38;100.00
42621;BME280;28252;53.336;-6.298;2023-05-23T00:16:03;102499.00;;;22.38;100.00
42621;BME280;28252;53.336;-6.298;2023-05-23T00:16:54;102503.44;;;22.39;100.00
42621;BME280;28252;53.336;-6.298;2023-05-23T00:17:29;102494.56;;;22.37;100.00
42621;BME280;28252;53.336;-6.298;2023-05-23T00:18:02;102496.28;;;22.38;100.00
42621;BME280;28252;53.336;-6.298;2023-05-23T00:18:36;102504.44;;;22.38;100.00
42621;BME280;28252;53.336;-6.298;2023-05-23T00:19:12;102499.16;;;22.36;100.00
42621;BME280;28252;53.336;-6.298;2023-05-23T00:19:45;102500.00;;;22.37;100.00
42621;BME280;28252;53.336;-6.298;2023-05-23T00:20:18;102501.00;;;22.36;100.00
42621;BME280;28252;53.336;-6.298;2023-05-23T00:20:50;102500.00;;;22.37;100.00
42621;BME280;28252;53.336;-6.298;2023-05-23T00:21:28;102498.28;;;22.36;100.00
42621;BME280;28252;53.336;-6.298;2023-05-23T00:22:02;102502.00;;;22.35;100.00
42621;BME280;28252;53.336;-6.298;2023-05-23T00:22:39;102504.56;;;22.36;100.00
42621;BME280;28252;53.336;-6.298;2023-05-23T00:23:14;102500.13;;;22.35;100.00
42621;BME280;28252;53.336;-6.298;2023-05-23T00:23:51;102502.84;;;22.35;100.00
42621;BME280;28252;53.336;-6.298;2023-05-23T00:24:23;102501.16;;;22.34;100.00
42621;BME280;28252;53.336;-6.298;2023-05-23T00:24:56;102502.00;;;22.35;100.00
42621;BME280;28252;53.336;-6.298;2023-05-23T00:25:36;102508.44;;;22.34;100.00
42621;BME280;28252;53.336;-6.298;2023-05-23T00:26:09;102505.72;;;22.34;100.00
42621;BME280;28252;53.336;-6.298;2023-05-23T00:26:45;102500.31;;;22.34;100.00
42621;BME280;28252;53.336;-6.298;2023-05-23T00:27:16;102498.56;;;22.33;100.00
42621;BME280;28252;53.336;-6.298;2023-05-23T00:27:52;102501.28;;;22.33;100.00
42621;BME280;28252;53.336;-6.298;2023-05-23T00:28:23;102497.72;;;22.32;100.00
42621;BME280;28252;53.336;-6.298;2023-05-23T00:28:56;102505.88;;;22.32;100.00
42621;BME280;28252;53.336;-6.298;2023-05-23T00:29:32;102502.28;;;22.32;100.00
42621;BME280;28252;53.336;-6.298;2023-05-23T00:30:03;102501.44;;;22.31;100.00
42621;BME280;28252;53.336;-6.298;2023-05-23T00:30:34;102510.41;;;22.32;100.00
42621;BME280;28252;53.336;-6.298;2023-05-23T00:31:08;102502.28;;;22.32;100.00
42621;BME280;28252;53.336;-6.298;2023-05-23T00:31:42;102507.69;;;22.32;100.00
42621;BME280;28252;53.336;-6.298;2023-05-23T00:32:16;102501.44;;;22.31;100.00
42621;BME280;28252;53.336;-6.298;2023-05-23T00:32:47;102506.00;;;22.31;100.00
42621;BME280;28252;53.336;-6.298;2023-05-23T00:33:24;102500.56;;;22.31;100.00
42621;BME280;28252;53.336;-6.298;2023-05-23T00:34:07;102502.41;;;22.30;100.00
42621;BME280;28252;53.336;-6.298;2023-05-23T00:34:38;102504.28;;;22.30;100.00
42621;BME280;28252;53.336;-6.298;2023-05-23T00:35:09;102507.00;;;22.30;100.00
42621;BME280;28252;53.336;-6.298;2023-05-23T00:35:42;102502.59;;;22.29;100.00
42621;BME280;28252;53.336;-6.298;2023-05-23T00:36:15;102500.72;;;22.29;100.00
42621;BME280;28252;53.336;-6.298;2023-05-23T00:36:52;102501.56;;;22.30;100.00
42621;BME280;28252;53.336;-6.298;2023-05-23T00:37:26;102501.56;;;22.30;100.00
42621;BME280;28252;53.336;-6.298;2023-05-23T00:38:00;102502.59;;;22.29;100.00
42621;BME280;28252;53.336;-6.298;2023-05-23T00:38:31;102500.84;;;22.28;100.00
42621;BME280;28252;53.336;-6.298;2023-05-23T00:39:05;102502.59;;;22.29;100.00
42621;BME280;28252;53.336;-6.298;2023-05-23T00:39:40;102500.84;;;22.28;100.00
42621;BME280;28252;53.336;-6.298;2023-05-23T00:40:11;102500.84;;;22.28;100.00
42621;BME280;28252;53.336;-6.298;2023-05-23T00:40:42;102498.25;;;22.26;100.00
42621;BME280;28252;53.336;-6.298;2023-05-23T00:41:18;102495.41;;;22.28;100.00
42621;BME280;28252;53.336;-6.298;2023-05-23T00:41:52;102491.97;;;22.26;100.00
42621;BME280;28252;53.336;-6.298;2023-05-23T00:42:23;102491.97;;;22.26;100.00
42621;BME280;28252;53.336;-6.298;2023-05-23T00:42:54;102504.50;;;22.27;100.00
42621;BME280;28252;53.336;-6.298;2023-05-23T00:43:26;102498.25;;;22.26;100.00
42621;BME280;28252;53.336;-6.298;2023-05-23T00:44:07;102491.97;;;22.26;100.00
42621;BME280;28252;53.336;-6.298;2023-05-23T00:44:40;102491.97;;;22.26;100.00
42621;BME280;28252;53.336;-6.298;2023-05-23T00:45:14;102501.09;;;22.25;100.00
42621;BME280;28252;53.336;-6.298;2023-05-23T00:45:47;102492.09;;;22.24;100.00
42621;BME280;28252;53.336;-6.298;2023-05-23T00:46:21;102491.97;;;22.26;100.00
42621;BME280;28252;53.336;-6.298;2023-05-23T00:46:54;102488.53;;;22.24;100.00
42621;BME280;28252;53.336;-6.298;2023-05-23T00:47:26;102493.97;;;22.24;100.00
42621;BME280;28252;53.336;-6.298;2023-05-23T00:47:59;102498.50;;;22.23;100.00
42621;BME280;28252;53.336;-6.298;2023-05-23T00:48:35;102494.81;;;22.24;100.00
42621;BME280;28252;53.336;-6.298;2023-05-23T00:49:08;102493.97;;;22.24;100.00
42621;BME280;28252;53.336;-6.298;2023-05-23T00:49:43;102493.09;;;22.23;100.00
42621;BME280;28252;53.336;-6.298;2023-05-23T00:50:19;102491.38;;;22.22;100.00
42621;BME280;28252;53.336;-6.298;2023-05-23T00:50:50;102485.97;;;22.22;100.00
42621;BME280;28252;53.336;-6.298;2023-05-23T00:51:29;102486.81;;;22.23;100.00
42621;BME280;28252;53.336;-6.298;2023-05-23T00:52:01;102495.94;;;22.22;100.00
42621;BME280;28252;53.336;-6.298;2023-05-23T00:52:33;102490.50;;;22.22;100.00
42621;BME280;28252;53.336;-6.298;2023-05-23T00:53:06;102487.78;;;22.22;100.00
42621;BME280;28252;53.336;-6.298;2023-05-23T00:53:39;102489.66;;;22.21;100.00
42621;BME280;28252;53.336;-6.298;2023-05-23T00:54:17;102489.66;;;22.21;100.00
42621;BME280;28252;53.336;-6.298;2023-05-23T00:54:55;102490.50;;;22.22;100.00
42621;BME280;28252;53.336;-6.298;2023-05-23T00:55:26;102495.09;;;22.21;100.00
42621;BME280;28252;53.336;-6.298;2023-05-23T00:56:00;102488.81;;;22.20;100.00
42621;BME280;28252;53.336;-6.298;2023-05-23T00:56:34;102489.66;;;22.21;100.00
42621;BME280;28252;53.336;-6.298;2023-05-23T00:57:08;102491.53;;;22.20;100.00
42621;BME280;28252;53.336;-6.298;2023-05-23T00:57:41;102488.81;;;22.20;100.00
42621;BME280;28252;53.336;-6.298;2023-05-23T00:58:15;102490.66;;;22.20;100.00
42621;BME280;28252;53.336;-6.298;2023-05-23T00:58:52;102487.94;;;22.20;100.00
42621;BME280;28252;53.336;-6.298;2023-05-23T00:59:26;102481.66;;;22.19;100.00
42621;BME280;28252;53.336;-6.298;2023-05-23T00:59:57;102482.50;;;22.20;100.00
42621;BME280;28252;53.336;-6.298;2023-05-23T01:00:33;102483.53;;;22.19;100.00
42621;BME280;28252;53.336;-6.298;2023-05-23T01:01:06;102485.34;;;22.18;100.00
42621;BME280;28252;53.336;-6.298;2023-05-23T01:01:45;102483.66;;;22.17;100.00
42621;BME280;28252;53.336;-6.298;2023-05-23T01:02:22;102482.63;;;22.18;100.00
42621;BME280;28252;53.336;-6.298;2023-05-23T01:02:53;102482.63;;;22.18;100.00
42621;BME280;28252;53.336;-6.298;2023-05-23T01:03:26;102488.06;;;22.18;100.00
42621;BME280;28252;53.336;-6.298;2023-05-23T01:04:00;102488.06;;;22.18;100.00
42621;BME280;28252;53.336;-6.298;2023-05-23T01:04:32;102495.38;;;22.18;100.00
42621;BME280;28252;53.336;-6.298;2023-05-23T01:05:08;102484.50;;;22.18;100.00
42621;BME280;28252;53.336;-6.298;2023-05-23T01:05:42;102489.09;;;22.17;100.00
42621;BME280;28252;53.336;-6.298;2023-05-23T01:06:19;102491.81;;;22.17;100.00
42621;BME280;28252;53.336;-6.298;2023-05-23T01:08:10;102489.22;;;22.16;100.00
42621;BME280;28252;53.336;-6.298;2023-05-23T01:08:46;102490.06;;;22.16;100.00
42621;BME280;28252;53.336;-6.298;2023-05-23T01:09:19;102491.94;;;22.16;100.00
42621;BME280;28252;53.336;-6.298;2023-05-23T01:09:51;102496.53;;;22.15;100.00
42621;BME280;28252;53.336;-6.298;2023-05-23T01:14:06;102499.38;;;22.14;100.00
42621;BME280;28252;53.336;-6.298;2023-05-23T01:14:50;102492.22;;;22.13;100.00
42621;BME280;28252;53.336;-6.298;2023-05-23T01:15:39;102495.94;;;22.12;100.00
42621;BME280;28252;53.336;-6.298;2023-05-23T01:16:17;102490.50;;;22.12;100.00
42621;BME280;28252;53.336;-6.298;2023-05-23T01:16:54;102491.38;;;22.12;100.00
42621;BME280;28252;53.336;-6.298;2023-05-23T01:17:56;102492.34;;;22.11;100.00
42621;BME280;28252;53.336;-6.298;2023-05-23T01:19:16;102495.06;;;22.11;100.00
42621;BME280;28252;53.336;-6.298;2023-05-23T01:20:16;102493.38;;;22.10;100.00
42621;BME280;28252;53.336;-6.298;2023-05-23T01:20:56;102491.50;;;22.11;100.00
42621;BME280;28252;53.336;-6.298;2023-05-23T01:21:33;102494.22;;;22.11;100.00
42621;BME280;28252;53.336;-6.298;2023-05-23T01:22:10;102492.47;;;22.10;100.00
42621;BME280;28252;53.336;-6.298;2023-05-23T01:24:31;102496.22;;;22.09;100.00
42621;BME280;28252;53.336;-6.298;2023-05-23T01:25:48;102500.75;;;22.08;100.00
42621;BME280;28252;53.336;-6.298;2023-05-23T01:28:06;102499.91;;;22.08;100.00
42621;BME280;28252;53.336;-6.298;2023-05-23T01:28:42;102501.78;;;22.07;100.00
42621;BME280;28252;53.336;-6.298;2023-05-23T01:29:31;102501.78;;;22.07;100.00
42621;BME280;28252;53.336;-6.298;2023-05-23T01:30:06;102494.63;;;22.06;100.00
42621;BME280;28252;53.336;-6.298;2023-05-23T01:30:40;102494.63;;;22.06;100.00
42621;BME280;28252;53.336;-6.298;2023-05-23T01:31:16;102500.03;;;22.06;100.00
42621;BME280;28252;53.336;-6.298;2023-05-23T01:31:54;102498.34;;;22.05;100.00
42621;BME280;28252;53.336;-6.298;2023-05-23T01:32:27;102506.34;;;22.07;100.00
42621;BME280;28252;53.336;-6.298;2023-05-23T01:33:01;102496.34;;;22.07;100.00
42621;BME280;28252;53.336;-6.298;2023-05-23T01:33:39;102502.75;;;22.06;100.00
42621;BME280;28252;53.336;-6.298;2023-05-23T01:34:13;102495.63;;;22.05;100.00
42621;BME280;28252;53.336;-6.298;2023-05-23T01:34:48;102495.63;;;22.05;100.00
42621;BME280;28252;53.336;-6.298;2023-05-23T01:35:24;102506.50;;;22.05;100.00
42621;BME280;28252;53.336;-6.298;2023-05-23T01:36:01;102501.06;;;22.05;100.00
42621;BME280;28252;53.336;-6.298;2023-05-23T01:36:42;102506.50;;;22.05;100.00
42621;BME280;28252;53.336;-6.298;2023-05-23T01:37:13;102505.59;;;22.05;100.00
42621;BME280;28252;53.336;-6.298;2023-05-23T01:37:50;102504.75;;;22.04;100.00
42621;BME280;28252;53.336;-6.298;2023-05-23T01:38:26;102511.03;;;22.05;100.00
42621;BME280;28252;53.336;-6.298;2023-05-23T01:39:00;102498.47;;;22.04;100.00
42621;BME280;28252;53.336;-6.298;2023-05-23T01:39:33;102501.19;;;22.04;100.00
42621;BME280;28252;53.336;-6.298;2023-05-23T01:40:13;102509.34;;;22.04;100.00
42621;BME280;28252;53.336;-6.298;2023-05-23T01:40:49;102507.59;;;22.02;100.00
42621;BME280;28252;53.336;-6.298;2023-05-23T01:41:20;102512.91;;;22.04;100.00
42621;BME280;28252;53.336;-6.298;2023-05-23T01:41:51;102507.59;;;22.02;100.00
42621;BME280;28252;53.336;-6.298;2023-05-23T01:42:25;102505.75;;;22.03;100.00
42621;BME280;28252;53.336;-6.298;2023-05-23T01:42:57;102511.16;;;22.03;100.00
42621;BME280;28252;53.336;-6.298;2023-05-23T01:43:29;102507.59;;;22.02;100.00
42621;BME280;28252;53.336;-6.298;2023-05-23T01:44:02;102506.75;;;22.02;100.00
42621;BME280;28252;53.336;-6.298;2023-05-23T01:44:35;102501.34;;;22.02;100.00
42621;BME280;28252;53.336;-6.298;2023-05-23T01:45:12;102502.31;;;22.01;100.00
42621;BME280;28252;53.336;-6.298;2023-05-23T01:45:44;102503.19;;;22.01;100.00
42621;BME280;28252;53.336;-6.298;2023-05-23T01:46:18;102504.06;;;22.02;100.00
42621;BME280;28252;53.336;-6.298;2023-05-23T01:46:52;102502.31;;;22.01;100.00
42621;BME280;28252;53.336;-6.298;2023-05-23T01:47:27;102494.19;;;22.01;100.00
42621;BME280;28252;53.336;-6.298;2023-05-23T01:48:04;102499.59;;;22.01;100.00
42621;BME280;28252;53.336;-6.298;2023-05-23T01:48:38;102501.47;;;22.00;100.00
42621;BME280;28252;53.336;-6.298;2023-05-23T01:49:10;102500.63;;;22.00;100.00
42621;BME280;28252;53.336;-6.298;2023-05-23T01:49:46;102500.63;;;22.00;100.00
42621;BME280;28252;53.336;-6.298;2023-05-23T01:50:17;102497.91;;;22.00;100.00
42621;BME280;28252;53.336;-6.298;2023-05-23T01:50:55;102495.19;;;22.00;100.00
42621;BME280;28252;53.336;-6.298;2023-05-23T01:51:27;102504.19;;;22.00;100.00
42621;BME280;28252;53.336;-6.298;2023-05-23T01:52:03;102498.91;;;21.99;100.00
42621;BME280;28252;53.336;-6.298;2023-05-23T01:52:35;102506.19;;;21.98;100.00
42621;BME280;28252;53.336;-6.298;2023-05-23T01:53:11;102503.47;;;21.98;100.00
42621;BME280;28252;53.336;-6.298;2023-05-23T01:53:45;102507.88;;;21.99;100.00
42621;BME280;28252;53.336;-6.298;2023-05-23T01:54:18;102504.31;;;21.99;100.00
42621;BME280;28252;53.336;-6.298;2023-05-23T01:54:50;102506.19;;;21.98;100.00
42621;BME280;28252;53.336;-6.298;2023-05-23T01:55:28;102511.63;;;21.98;100.00
42621;BME280;28252;53.336;-6.298;2023-05-23T01:56:03;102510.72;;;21.98;100.00
42621;BME280;28252;53.336;-6.298;2023-05-23T01:56:36;102511.63;;;21.98;100.00
42621;BME280;28252;53.336;-6.298;2023-05-23T01:57:10;102512.59;;;21.97;100.00
42621;BME280;28252;53.336;-6.298;2023-05-23T01:57:49;102506.31;;;21.97;100.00
42621;BME280;28252;53.336;-6.298;2023-05-23T01:58:20;102514.47;;;21.97;100.00
42621;BME280;28252;53.336;-6.298;2023-05-23T01:58:55;102516.31;;;21.96;100.00
42621;BME280;28252;53.336;-6.298;2023-05-23T01:59:34;102513.63;;;21.96;100.00
42621;BME280;28252;53.336;-6.298;2023-05-23T02:00:05;102519.88;;;21.97;100.00
42621;BME280;28252;53.336;-6.298;2023-05-23T02:00:44;102513.75;;;21.95;100.00
42621;BME280;28252;53.336;-6.298;2023-05-23T02:01:19;102511.03;;;21.95;100.00
42621;BME280;28252;53.336;-6.298;2023-05-23T02:01:54;102511.88;;;21.95;100.00
42621;BME280;28252;53.336;-6.298;2023-05-23T02:02:26;102511.88;;;21.95;100.00
42621;BME280;28252;53.336;-6.298;2023-05-23T02:02:59;102505.59;;;21.95;100.00
42621;BME280;28252;53.336;-6.298;2023-05-23T02:03:32;102509.31;;;21.94;100.00
42621;BME280;28252;53.336;-6.298;2023-05-23T02:04:06;102513.75;;;21.95;100.00
42621;BME280;28252;53.336;-6.298;2023-05-23T02:04:37;102512.88;;;21.94;100.00
42621;BME280;28252;53.336;-6.298;2023-05-23T02:05:13;102511.03;;;21.95;100.00
42621;BME280;28252;53.336;-6.298;2023-05-23T02:05:49;102513.00;;;21.93;100.00
42621;BME280;28252;53.336;-6.298;2023-05-23T02:06:28;102515.72;;;21.93;100.00
42621;BME280;28252;53.336;-6.298;2023-05-23T02:07:01;102513.88;;;21.93;100.00
42621;BME280;28252;53.336;-6.298;2023-05-23T02:07:32;102513.88;;;21.93;100.00
42621;BME280;28252;53.336;-6.298;2023-05-23T02:08:08;102513.00;;;21.93;100.00
42621;BME280;28252;53.336;-6.298;2023-05-23T02:08:42;102514.00;;;21.92;100.00
42621;BME280;28252;53.336;-6.298;2023-05-23T02:09:22;102514.00;;;21.92;100.00
42621;BME280;28252;53.336;-6.298;2023-05-23T02:09:55;102513.13;;;21.91;100.00
42621;BME280;28252;53.336;-6.298;2023-05-23T02:10:26;102520.41;;;21.91;100.00
42621;BME280;28252;53.336;-6.298;2023-05-23T02:10:57;102515.00;;;21.91;100.00
42621;BME280;28252;53.336;-6.298;2023-05-23T02:11:30;102514.00;;;21.92;100.00
42621;BME280;28252;53.336;-6.298;2023-05-23T02:12:06;102514.00;;;21.92;100.00
42621;BME280;28252;53.336;-6.298;2023-05-23T02:12:39;102515.00;;;21.91;100.00
42621;BME280;28252;53.336;-6.298;2023-05-23T02:13:14;102515.00;;;21.91;100.00
42621;BME280;28252;53.336;-6.298;2023-05-23T02:13:48;102515.00;;;21.91;100.00
42621;BME280;28252;53.336;-6.298;2023-05-23T02:14:22;102514.16;;;21.90;100.00
42621;BME280;28252;53.336;-6.298;2023-05-23T02:14:55;102514.16;;;21.90;100.00
42621;BME280;28252;53.336;-6.298;2023-05-23T02:15:31;102508.72;;;21.90;100.00
42621;BME280;28252;53.336;-6.298;2023-05-23T02:16:09;102507.00;;;21.89;100.00
42621;BME280;28252;53.336;-6.298;2023-05-23T02:16:43;102518.72;;;21.90;100.00
42621;BME280;28252;53.336;-6.298;2023-05-23T02:17:20;102515.13;;;21.89;100.00
42621;BME280;28252;53.336;-6.298;2023-05-23T02:17:56;102514.16;;;21.90;100.00
42621;BME280;28252;53.336;-6.298;2023-05-23T02:18:27;102514.16;;;21.90;100.00
42621;BME280;28252;53.336;-6.298;2023-05-23T02:19:01;102510.72;;;21.88;100.00
42621;BME280;28252;53.336;-6.298;2023-05-23T02:19:38;102519.72;;;21.89;100.00
42621;BME280;28252;53.336;-6.298;2023-05-23T02:20:11;102515.25;;;21.88;100.00
42621;BME280;28252;53.336;-6.298;2023-05-23T02:20:44;102509.84;;;21.88;100.00
42621;BME280;28252;53.336;-6.298;2023-05-23T02:21:15;102515.25;;;21.88;100.00
42621;BME280;28252;53.336;-6.298;2023-05-23T02:21:49;102510.72;;;21.88;100.00
42621;BME280;28252;53.336;-6.298;2023-05-23T02:22:25;102509.84;;;21.88;100.00
42621;BME280;28252;53.336;-6.298;2023-05-23T02:23:00;102509.00;;;21.87;100.00
42621;BME280;28252;53.336;-6.298;2023-05-23T02:23:34;102505.44;;;21.87;100.00
42621;BME280;28252;53.336;-6.298;2023-05-23T02:24:05;102504.41;;;21.88;100.00
42621;BME280;28252;53.336;-6.298;2023-05-23T02:24:40;102503.56;;;21.87;100.00
42621;BME280;28252;53.336;-6.298;2023-05-23T02:25:13;102501.00;;;21.86;100.00
42621;BME280;28252;53.336;-6.298;2023-05-23T02:25:45;102509.97;;;21.86;100.00
42621;BME280;28252;53.336;-6.298;2023-05-23T02:26:16;102511.84;;;21.86;100.00
42621;BME280;28252;53.336;-6.298;2023-05-23T02:26:52;102516.28;;;21.87;100.00
42621;BME280;28252;53.336;-6.298;2023-05-23T02:27:25;102510.84;;;21.87;100.00
42621;BME280;28252;53.336;-6.298;2023-05-23T02:27:59;102509.13;;;21.86;100.00
42621;BME280;28252;53.336;-6.298;2023-05-23T02:28:35;102512.69;;;21.86;100.00
42621;BME280;28252;53.336;-6.298;2023-05-23T02:29:08;102512.84;;;21.85;100.00
42621;BME280;28252;53.336;-6.298;2023-05-23T02:29:41;102510.13;;;21.85;100.00
42621;BME280;28252;53.336;-6.298;2023-05-23T02:30:14;102510.13;;;21.85;100.00
42621;BME280;28252;53.336;-6.298;2023-05-23T02:30:46;102507.44;;;21.85;100.00
42621;BME280;28252;53.336;-6.298;2023-05-23T02:31:21;102510.13;;;21.85;100.00
42621;BME280;28252;53.336;-6.298;2023-05-23T02:31:55;102508.41;;;21.83;100.00
42621;BME280;28252;53.336;-6.298;2023-05-23T02:32:26;102506.69;;;21.82;100.00
42621;BME280;28252;53.336;-6.298;2023-05-23T02:32:59;102500.28;;;21.83;100.00
42621;BME280;28252;53.336;-6.298;2023-05-23T02:33:36;102511.13;;;21.83;100.00
42621;BME280;28252;53.336;-6.298;2023-05-23T02:34:09;102507.56;;;21.83;100.00
42621;BME280;28252;53.336;-6.298;2023-05-23T02:34:45;102506.69;;;21.82;100.00
42621;BME280;28252;53.336;-6.298;2023-05-23T02:35:23;102509.41;;;21.82;100.00
42621;BME280;28252;53.336;-6.298;2023-05-23T02:35:56;102512.09;;;21.82;100.00
42621;BME280;28252;53.336;-6.298;2023-05-23T02:36:29;102507.56;;;21.83;100.00
42621;BME280;28252;53.336;-6.298;2023-05-23T02:37:04;102506.69;;;21.82;100.00
42621;BME280;28252;53.336;-6.298;2023-05-23T02:37:38;102506.69;;;21.82;100.00
42621;BME280;28252;53.336;-6.298;2023-05-23T02:38:11;102510.41;;;21.81;100.00
42621;BME280;28252;53.336;-6.298;2023-05-23T02:38:46;102496.97;;;21.80;100.00
42621;BME280;28252;53.336;-6.298;2023-05-23T02:39:17;102499.56;;;21.81;100.00
42621;BME280;28252;53.336;-6.298;2023-05-23T02:42:21;102501.56;;;21.79;100.00
42621;BME280;28252;53.336;-6.298;2023-05-23T02:42:54;102506.09;;;21.79;100.00
42621;BME280;28252;53.336;-6.298;2023-05-23T02:43:30;102508.81;;;21.79;100.00
42621;BME280;28252;53.336;-6.298;2023-05-23T02:44:06;102516.09;;;21.78;100.00
42621;BME280;28252;53.336;-6.298;2023-05-23T02:44:41;102506.97;;;21.79;100.00
42621;BME280;28252;53.336;-6.298;2023-05-23T02:45:12;102510.69;;;21.78;100.00
42621;BME280;28252;53.336;-6.298;2023-05-23T02:45:48;102513.38;;;21.78;100.00
42621;BME280;28252;53.336;-6.298;2023-05-23T02:46:21;102510.69;;;21.78;100.00
42621;BME280;28252;53.336;-6.298;2023-05-23T02:46:54;102513.38;;;21.78;100.00
42621;BME280;28252;53.336;-6.298;2023-05-23T02:47:31;102515.25;;;21.78;100.00
42621;BME280;28252;53.336;-6.298;2023-05-23T02:48:09;102516.09;;;21.78;100.00
42621;BME280;28252;53.336;-6.298;2023-05-23T02:48:46;102516.09;;;21.78;100.00
42621;BME280;28252;53.336;-6.298;2023-05-23T02:49:19;102514.38;;;21.77;100.00
42621;BME280;28252;53.336;-6.298;2023-05-23T02:49:52;102513.53;;;21.77;100.00
42621;BME280;28252;53.336;-6.298;2023-05-23T02:50:24;102516.22;;;21.77;100.00
42621;BME280;28252;53.336;-6.298;2023-05-23T02:50:55;102516.22;;;21.77;100.00
42621;BME280;28252;53.336;-6.298;2023-05-23T02:51:31;102513.53;;;21.77;100.00
42621;BME280;28252;53.336;-6.298;2023-05-23T02:52:05;102515.38;;;21.76;100.00
42621;BME280;28252;53.336;-6.298;2023-05-23T02:52:42;102513.66;;;21.75;100.00
42621;BME280;28252;53.336;-6.298;2023-05-23T02:53:16;102518.22;;;21.75;100.00
42621;BME280;28252;53.336;-6.298;2023-05-23T02:53:49;102515.53;;;21.75;100.00
42621;BME280;28252;53.336;-6.298;2023-05-23T02:54:21;102516.38;;;21.75;100.00
42621;BME280;28252;53.336;-6.298;2023-05-23T02:54:54;102516.38;;;21.75;100.00
42621;BME280;28252;53.336;-6.298;2023-05-23T02:55:29;102511.97;;;21.74;100.00
42621;BME280;28252;53.336;-6.298;2023-05-23T02:56:01;102512.81;;;21.75;100.00
42621;BME280;28252;53.336;-6.298;2023-05-23T02:56:37;102514.66;;;21.74;100.00
42621;BME280;28252;53.336;-6.298;2023-05-23T02:57:08;102513.78;;;21.74;100.00
42621;BME280;28252;53.336;-6.298;2023-05-23T02:57:45;102510.22;;;21.73;100.00
42621;BME280;28252;53.336;-6.298;2023-05-23T02:58:21;102514.81;;;21.73;100.00
42621;BME280;28252;53.336;-6.298;2023-05-23T02:58:56;102512.09;;;21.73;100.00
42621;BME280;28252;53.336;-6.298;2023-05-23T02:59:27;102512.09;;;21.73;100.00
42621;BME280;28252;53.336;-6.298;2023-05-23T02:59:59;102512.94;;;21.73;100.00
42621;BME280;28252;53.336;-6.298;2023-05-23T03:00:33;102510.38;;;21.72;100.00
42621;BME280;28252;53.336;-6.298;2023-05-23T03:01:06;102511.22;;;21.72;100.00
42621;BME280;28252;53.336;-6.298;2023-05-23T03:01:40;102514.06;;;21.71;100.00
42621;BME280;28252;53.336;-6.298;2023-05-23T03:02:11;102514.06;;;21.71;100.00
42621;BME280;28252;53.336;-6.298;2023-05-23T03:02:46;102514.94;;;21.71;100.00
42621;BME280;28252;53.336;-6.298;2023-05-23T03:03:20;102514.94;;;21.71;100.00
42621;BME280;28252;53.336;-6.298;2023-05-23T03:03:53;102514.06;;;21.71;100.00
42621;BME280;28252;53.336;-6.298;2023-05-23T03:04:26;102514.94;;;21.71;100.00
42621;BME280;28252;53.336;-6.298;2023-05-23T03:04:59;102518.63;;;21.70;100.00
42621;BME280;28252;53.336;-6.298;2023-05-23T03:05:30;102514.22;;;21.69;100.00
42621;BME280;28252;53.336;-6.298;2023-05-23T03:06:08;102519.66;;;21.69;100.00
42621;BME280;28252;53.336;-6.298;2023-05-23T03:06:44;102516.94;;;21.69;100.00
42621;BME280;28252;53.336;-6.298;2023-05-23T03:07:17;102522.34;;;21.69;100.00
42621;BME280;28252;53.336;-6.298;2023-05-23T03:07:51;102517.91;;;21.68;100.00
42621;BME280;28252;53.336;-6.298;2023-05-23T03:08:26;102520.63;;;21.68;100.00